sensor_id;sensor_type;location;lat;lon;timestamp;P1;durP1;ratioP1;P2;durP2;ratioP2
14143;SDS011;7152;48.348;10.980;2023-02-28T00:00:48;3.53;;;3.23;;
14143;SDS011;7152;48.348;10.980;2023-02-28T00:03:14;5.23;;;3.73;;
14143;SDS011;7152;48.348;10.980;2023-02-28T00:05:39;4.20;;;3.80;;
14143;SDS011;7152;48.348;10.980;2023-02-28T00:08:06;4.43;;;3.57;;
14143;SDS011;7152;48.348;10.980;2023-02-28T00:10:32;3.60;;;3.30;;
14143;SDS011;7152;48.348;10.980;2023-02-28T00:12:59;3.97;;;3.57;;
14143;SDS011;7152;48.348;10.980;2023-02-28T00:15:27;3.80;;;3.27;;
14143;SDS011;7152;48.348;10.980;2023-02-28T00:17:53;4.33;;;3.50;;
14143;SDS011;7152;48.348;10.980;2023-02-28T00:20:19;4.67;;;3.87;;
14143;SDS011;7152;48.348;10.980;2023-02-28T00:22:46;4.57;;;4.10;;
14143;SDS011;7152;48.348;10.980;2023-02-28T00:25:14;4.17;;;3.43;;
14143;SDS011;7152;48.348;10.980;2023-02-28T00:27:42;5.47;;;3.40;;
14143;SDS011;7152;48.348;10.980;2023-02-28T00:30:10;6.13;;;4.07;;
14143;SDS011;7152;48.348;10.980;2023-02-28T00:32:38;5.77;;;3.90;;
14143;SDS011;7152;48.348;10.980;2023-02-28T00:35:04;5.70;;;4.10;;
14143;SDS011;7152;48.348;10.980;2023-02-28T00:37:30;3.87;;;3.27;;
14143;SDS011;7152;48.348;10.980;2023-02-28T00:39:56;3.97;;;3.67;;
14143;SDS011;7152;48.348;10.980;2023-02-28T00:42:22;4.27;;;3.87;;
14143;SDS011;7152;48.348;10.980;2023-02-28T00:44:48;3.97;;;3.60;;
14143;SDS011;7152;48.348;10.980;2023-02-28T00:47:14;4.37;;;3.97;;
14143;SDS011;7152;48.348;10.980;2023-02-28T00:49:40;4.27;;;3.27;;
14143;SDS011;7152;48.348;10.980;2023-02-28T00:52:06;3.63;;;3.33;;
14143;SDS011;7152;48.348;10.980;2023-02-28T00:54:32;3.80;;;3.50;;
14143;SDS011;7152;48.348;10.980;2023-02-28T00:56:58;3.87;;;3.43;;
14143;SDS011;7152;48.348;10.980;2023-02-28T00:59:24;4.90;;;3.63;;
14143;SDS011;7152;48.348;10.980;2023-02-28T01:01:50;4.43;;;3.93;;
14143;SDS011;7152;48.348;10.980;2023-02-28T01:04:16;5.20;;;3.60;;
14143;SDS011;7152;48.348;10.980;2023-02-28T01:06:42;3.63;;;3.33;;
14143;SDS011;7152;48.348;10.980;2023-02-28T01:09:08;5.07;;;3.37;;
14143;SDS011;7152;48.348;10.980;2023-02-28T01:11:34;4.40;;;3.47;;
14143;SDS011;7152;48.348;10.980;2023-02-28T01:14:00;4.47;;;4.07;;
14143;SDS011;7152;48.348;10.980;2023-02-28T01:16:26;3.73;;;3.30;;
14143;SDS011;7152;48.348;10.980;2023-02-28T01:18:52;3.80;;;3.40;;
14143;SDS011;7152;48.348;10.980;2023-02-28T01:21:19;5.00;;;3.83;;
14143;SDS011;7152;48.348;10.980;2023-02-28T01:23:46;4.30;;;3.70;;
14143;SDS011;7152;48.348;10.980;2023-02-28T01:26:13;5.77;;;3.90;;
14143;SDS011;7152;48.348;10.980;2023-02-28T01:28:41;5.73;;;4.27;;
14143;SDS011;7152;48.348;10.980;2023-02-28T01:31:06;4.33;;;3.63;;
14143;SDS011;7152;48.348;10.980;2023-02-28T01:33:33;4.53;;;3.70;;
14143;SDS011;7152;48.348;10.980;2023-02-28T01:38:25;5.07;;;3.90;;
14143;SDS011;7152;48.348;10.980;2023-02-28T01:40:51;4.40;;;3.40;;
14143;SDS011;7152;48.348;10.980;2023-02-28T01:43:22;4.07;;;3.67;;
14143;SDS011;7152;48.348;10.980;2023-02-28T01:45:51;6.17;;;4.27;;
14143;SDS011;7152;48.348;10.980;2023-02-28T01:48:18;4.67;;;3.60;;
14143;SDS011;7152;48.348;10.980;2023-02-28T01:50:45;5.13;;;4.63;;
14143;SDS011;7152;48.348;10.980;2023-02-28T01:53:14;4.10;;;3.80;;
14143;SDS011;7152;48.348;10.980;2023-02-28T01:55:45;5.17;;;4.17;;
14143;SDS011;7152;48.348;10.980;2023-02-28T01:58:13;4.73;;;3.70;;
14143;SDS011;7152;48.348;10.980;2023-02-28T02:00:39;3.90;;;3.50;;
14143;SDS011;7152;48.348;10.980;2023-02-28T02:03:12;4.70;;;3.70;;
14143;SDS011;7152;48.348;10.980;2023-02-28T02:05:40;4.57;;;4.13;;
14143;SDS011;7152;48.348;10.980;2023-02-28T02:08:08;4.17;;;3.77;;
14143;SDS011;7152;48.348;10.980;2023-02-28T02:10:39;5.27;;;3.63;;
14143;SDS011;7152;48.348;10.980;2023-02-28T02:18:52;4.03;;;3.63;;
14143;SDS011;7152;48.348;10.980;2023-02-28T02:37:50;4.40;;;4.00;;
14143;SDS011;7152;48.348;10.980;2023-02-28T02:40:20;6.80;;;4.20;;
14143;SDS011;7152;48.348;10.980;2023-02-28T02:45:34;4.47;;;3.97;;
14143;SDS011;7152;48.348;10.980;2023-02-28T02:48:06;5.53;;;3.87;;
14143;SDS011;7152;48.348;10.980;2023-02-28T02:50:38;6.93;;;4.40;;
14143;SDS011;7152;48.348;10.980;2023-02-28T02:53:09;5.80;;;4.60;;
14143;SDS011;7152;48.348;10.980;2023-02-28T02:55:39;5.20;;;4.30;;
14143;SDS011;7152;48.348;10.980;2023-02-28T02:58:09;4.93;;;4.07;;
14143;SDS011;7152;48.348;10.980;2023-02-28T03:00:42;6.57;;;4.90;;
14143;SDS011;7152;48.348;10.980;2023-02-28T03:03:13;5.63;;;4.43;;
14143;SDS011;7152;48.348;10.980;2023-02-28T03:05:46;5.80;;;5.10;;
14143;SDS011;7152;48.348;10.980;2023-02-28T03:08:12;5.00;;;4.43;;
14143;SDS011;7152;48.348;10.980;2023-02-28T03:10:41;7.07;;;5.33;;
14143;SDS011;7152;48.348;10.980;2023-02-28T03:18:32;6.70;;;5.30;;
14143;SDS011;7152;48.348;10.980;2023-02-28T03:24:19;7.67;;;5.43;;
14143;SDS011;7152;48.348;10.980;2023-02-28T03:27:03;6.00;;;5.07;;
14143;SDS011;7152;48.348;10.980;2023-02-28T03:29:47;6.93;;;5.37;;
14143;SDS011;7152;48.348;10.980;2023-02-28T03:32:55;7.10;;;5.40;;
14143;SDS011;7152;48.348;10.980;2023-02-28T03:35:19;8.40;;;5.03;;
14143;SDS011;7152;48.348;10.980;2023-02-28T03:37:47;7.27;;;5.73;;
14143;SDS011;7152;48.348;10.980;2023-02-28T03:40:26;6.47;;;5.37;;
14143;SDS011;7152;48.348;10.980;2023-02-28T03:42:57;7.93;;;5.63;;
14143;SDS011;7152;48.348;10.980;2023-02-28T03:45:28;7.43;;;5.27;;
14143;SDS011;7152;48.348;10.980;2023-02-28T03:50:40;6.93;;;5.40;;
14143;SDS011;7152;48.348;10.980;2023-02-28T03:53:11;7.70;;;5.70;;
14143;SDS011;7152;48.348;10.980;2023-02-28T03:55:48;5.93;;;5.33;;
14143;SDS011;7152;48.348;10.980;2023-02-28T03:58:29;7.37;;;5.90;;
14143;SDS011;7152;48.348;10.980;2023-02-28T04:01:43;7.73;;;5.93;;
14143;SDS011;7152;48.348;10.980;2023-02-28T04:03:52;8.03;;;5.97;;
14143;SDS011;7152;48.348;10.980;2023-02-28T04:06:19;10.00;;;6.63;;
14143;SDS011;7152;48.348;10.980;2023-02-28T04:08:47;8.40;;;6.50;;
14143;SDS011;7152;48.348;10.980;2023-02-28T04:13:42;6.60;;;5.87;;
14143;SDS011;7152;48.348;10.980;2023-02-28T04:16:08;7.73;;;6.47;;
14143;SDS011;7152;48.348;10.980;2023-02-28T04:18:37;9.03;;;7.13;;
14143;SDS011;7152;48.348;10.980;2023-02-28T04:21:06;8.93;;;6.70;;
14143;SDS011;7152;48.348;10.980;2023-02-28T04:23:32;7.97;;;6.67;;
14143;SDS011;7152;48.348;10.980;2023-02-28T04:25:58;8.87;;;6.77;;
14143;SDS011;7152;48.348;10.980;2023-02-28T04:28:24;9.17;;;7.63;;
14143;SDS011;7152;48.348;10.980;2023-02-28T04:30:59;8.73;;;6.70;;
14143;SDS011;7152;48.348;10.980;2023-02-28T04:33:27;9.37;;;7.37;;
14143;SDS011;7152;48.348;10.980;2023-02-28T04:35:58;8.00;;;7.00;;
14143;SDS011;7152;48.348;10.980;2023-02-28T04:38:37;7.73;;;6.97;;
14143;SDS011;7152;48.348;10.980;2023-02-28T04:41:04;8.00;;;7.20;;
14143;SDS011;7152;48.348;10.980;2023-02-28T04:43:31;11.03;;;7.27;;
14143;SDS011;7152;48.348;10.980;2023-02-28T04:45:57;10.43;;;7.13;;
14143;SDS011;7152;48.348;10.980;2023-02-28T04:48:27;9.40;;;7.80;;
14143;SDS011;7152;48.348;10.980;2023-02-28T04:50:54;9.93;;;7.23;;
14143;SDS011;7152;48.348;10.980;2023-02-28T04:53:20;10.07;;;8.37;;
14143;SDS011;7152;48.348;10.980;2023-02-28T04:55:46;10.77;;;7.90;;
14143;SDS011;7152;48.348;10.980;2023-02-28T04:58:12;7.60;;;6.37;;
14143;SDS011;7152;48.348;10.980;2023-02-28T05:00:38;7.77;;;6.83;;
14143;SDS011;7152;48.348;10.980;2023-02-28T05:03:04;9.13;;;7.03;;
14143;SDS011;7152;48.348;10.980;2023-02-28T05:05:30;8.17;;;6.70;;
14143;SDS011;7152;48.348;10.980;2023-02-28T05:07:56;10.33;;;7.43;;
14143;SDS011;7152;48.348;10.980;2023-02-28T05:10:22;12.97;;;8.27;;
14143;SDS011;7152;48.348;10.980;2023-02-28T05:12:48;9.20;;;7.23;;
14143;SDS011;7152;48.348;10.980;2023-02-28T05:15:14;9.53;;;7.20;;
14143;SDS011;7152;48.348;10.980;2023-02-28T05:17:40;9.80;;;7.73;;
14143;SDS011;7152;48.348;10.980;2023-02-28T05:20:06;8.97;;;7.47;;
14143;SDS011;7152;48.348;10.980;2023-02-28T05:22:35;9.40;;;7.73;;
14143;SDS011;7152;48.348;10.980;2023-02-28T05:25:02;10.40;;;7.70;;
14143;SDS011;7152;48.348;10.980;2023-02-28T05:27:29;8.50;;;7.60;;
14143;SDS011;7152;48.348;10.980;2023-02-28T05:29:55;7.67;;;6.87;;
14143;SDS011;7152;48.348;10.980;2023-02-28T05:32:21;9.27;;;7.37;;
14143;SDS011;7152;48.348;10.980;2023-02-28T05:34:47;9.33;;;7.57;;
14143;SDS011;7152;48.348;10.980;2023-02-28T05:37:13;9.20;;;7.33;;
14143;SDS011;7152;48.348;10.980;2023-02-28T05:39:39;9.17;;;7.53;;
14143;SDS011;7152;48.348;10.980;2023-02-28T05:42:05;9.00;;;7.37;;
14143;SDS011;7152;48.348;10.980;2023-02-28T05:44:31;9.27;;;7.50;;
14143;SDS011;7152;48.348;10.980;2023-02-28T05:46:57;10.80;;;7.93;;
14143;SDS011;7152;48.348;10.980;2023-02-28T05:49:23;8.97;;;7.87;;
14143;SDS011;7152;48.348;10.980;2023-02-28T05:51:48;12.73;;;8.47;;
14143;SDS011;7152;48.348;10.980;2023-02-28T05:54:14;9.57;;;8.03;;
14143;SDS011;7152;48.348;10.980;2023-02-28T05:56:40;10.73;;;8.87;;
14143;SDS011;7152;48.348;10.980;2023-02-28T05:59:08;10.50;;;8.50;;
14143;SDS011;7152;48.348;10.980;2023-02-28T06:01:36;11.77;;;9.03;;
14143;SDS011;7152;48.348;10.980;2023-02-28T06:04:03;10.13;;;8.83;;
14143;SDS011;7152;48.348;10.980;2023-02-28T06:06:30;12.27;;;8.37;;
14143;SDS011;7152;48.348;10.980;2023-02-28T06:08:59;11.07;;;8.80;;
14143;SDS011;7152;48.348;10.980;2023-02-28T06:11:24;11.53;;;8.73;;
14143;SDS011;7152;48.348;10.980;2023-02-28T06:13:55;12.53;;;9.23;;
14143;SDS011;7152;48.348;10.980;2023-02-28T06:16:21;9.40;;;8.20;;
14143;SDS011;7152;48.348;10.980;2023-02-28T06:18:47;13.13;;;9.27;;
14143;SDS011;7152;48.348;10.980;2023-02-28T06:21:13;12.93;;;9.93;;
14143;SDS011;7152;48.348;10.980;2023-02-28T06:23:39;12.07;;;9.70;;
14143;SDS011;7152;48.348;10.980;2023-02-28T06:26:04;13.47;;;9.20;;
14143;SDS011;7152;48.348;10.980;2023-02-28T06:28:30;11.37;;;9.03;;
14143;SDS011;7152;48.348;10.980;2023-02-28T06:30:56;13.43;;;10.27;;
14143;SDS011;7152;48.348;10.980;2023-02-28T06:33:22;11.77;;;8.87;;
14143;SDS011;7152;48.348;10.980;2023-02-28T06:35:51;11.27;;;8.53;;
14143;SDS011;7152;48.348;10.980;2023-02-28T06:38:17;10.90;;;8.67;;
14143;SDS011;7152;48.348;10.980;2023-02-28T06:40:43;11.63;;;8.73;;
14143;SDS011;7152;48.348;10.980;2023-02-28T06:43:09;10.30;;;8.77;;
14143;SDS011;7152;48.348;10.980;2023-02-28T06:45:40;10.17;;;8.80;;
14143;SDS011;7152;48.348;10.980;2023-02-28T06:48:07;11.37;;;8.87;;
14143;SDS011;7152;48.348;10.980;2023-02-28T06:50:33;11.17;;;8.27;;
14143;SDS011;7152;48.348;10.980;2023-02-28T06:52:59;12.27;;;10.13;;
14143;SDS011;7152;48.348;10.980;2023-02-28T06:55:24;13.00;;;10.53;;
14143;SDS011;7152;48.348;10.980;2023-02-28T06:57:50;10.97;;;8.53;;
14143;SDS011;7152;48.348;10.980;2023-02-28T07:00:16;11.53;;;9.27;;
14143;SDS011;7152;48.348;10.980;2023-02-28T07:02:41;12.00;;;8.80;;
14143;SDS011;7152;48.348;10.980;2023-02-28T07:05:07;9.93;;;8.77;;
14143;SDS011;7152;48.348;10.980;2023-02-28T07:07:33;14.97;;;11.43;;
14143;SDS011;7152;48.348;10.980;2023-02-28T07:10:00;11.03;;;8.53;;
14143;SDS011;7152;48.348;10.980;2023-02-28T07:12:26;10.30;;;8.67;;
14143;SDS011;7152;48.348;10.980;2023-02-28T07:14:52;9.97;;;8.47;;
14143;SDS011;7152;48.348;10.980;2023-02-28T07:17:19;12.53;;;9.87;;
14143;SDS011;7152;48.348;10.980;2023-02-28T07:19:44;10.63;;;9.27;;
14143;SDS011;7152;48.348;10.980;2023-02-28T07:22:10;13.97;;;10.40;;
14143;SDS011;7152;48.348;10.980;2023-02-28T07:24:36;9.60;;;8.33;;
14143;SDS011;7152;48.348;10.980;2023-02-28T07:27:01;12.47;;;10.13;;
14143;SDS011;7152;48.348;10.980;2023-02-28T07:29:27;12.97;;;10.40;;
14143;SDS011;7152;48.348;10.980;2023-02-28T07:31:54;13.30;;;9.27;;
14143;SDS011;7152;48.348;10.980;2023-02-28T07:34:20;13.27;;;10.43;;
14143;SDS011;7152;48.348;10.980;2023-02-28T07:36:46;10.67;;;9.27;;
14143;SDS011;7152;48.348;10.980;2023-02-28T07:39:12;11.17;;;8.10;;
14143;SDS011;7152;48.348;10.980;2023-02-28T07:41:38;11.47;;;8.83;;
14143;SDS011;7152;48.348;10.980;2023-02-28T07:44:08;10.47;;;8.83;;
14143;SDS011;7152;48.348;10.980;2023-02-28T07:46:35;9.83;;;8.83;;
14143;SDS011;7152;48.348;10.980;2023-02-28T07:49:01;10.97;;;8.37;;
14143;SDS011;7152;48.348;10.980;2023-02-28T07:51:28;11.00;;;8.60;;
14143;SDS011;7152;48.348;10.980;2023-02-28T07:53:55;11.33;;;9.77;;
14143;SDS011;7152;48.348;10.980;2023-02-28T07:56:21;11.13;;;8.47;;
14143;SDS011;7152;48.348;10.980;2023-02-28T07:58:46;12.30;;;9.23;;
14143;SDS011;7152;48.348;10.980;2023-02-28T08:01:12;10.57;;;8.77;;
14143;SDS011;7152;48.348;10.980;2023-02-28T08:03:38;11.43;;;9.37;;
14143;SDS011;7152;48.348;10.980;2023-02-28T08:06:05;10.10;;;8.40;;
14143;SDS011;7152;48.348;10.980;2023-02-28T08:08:32;11.03;;;9.03;;
14143;SDS011;7152;48.348;10.980;2023-02-28T08:11:01;10.53;;;8.70;;
14143;SDS011;7152;48.348;10.980;2023-02-28T08:13:28;11.97;;;9.37;;
14143;SDS011;7152;48.348;10.980;2023-02-28T08:15:55;10.43;;;9.03;;
14143;SDS011;7152;48.348;10.980;2023-02-28T08:18:21;10.33;;;9.23;;
14143;SDS011;7152;48.348;10.980;2023-02-28T08:20:47;11.23;;;9.40;;
14143;SDS011;7152;48.348;10.980;2023-02-28T08:23:14;10.43;;;8.87;;
14143;SDS011;7152;48.348;10.980;2023-02-28T08:25:39;9.87;;;8.50;;
14143;SDS011;7152;48.348;10.980;2023-02-28T08:28:05;12.77;;;9.30;;
14143;SDS011;7152;48.348;10.980;2023-02-28T08:30:31;12.20;;;9.37;;
14143;SDS011;7152;48.348;10.980;2023-02-28T08:32:56;11.03;;;9.23;;
14143;SDS011;7152;48.348;10.980;2023-02-28T08:35:22;10.77;;;9.57;;
14143;SDS011;7152;48.348;10.980;2023-02-28T08:37:48;10.87;;;9.10;;
14143;SDS011;7152;48.348;10.980;2023-02-28T08:40:14;14.50;;;10.00;;
14143;SDS011;7152;48.348;10.980;2023-02-28T08:42:46;12.13;;;9.77;;
14143;SDS011;7152;48.348;10.980;2023-02-28T08:45:12;12.03;;;9.43;;
14143;SDS011;7152;48.348;10.980;2023-02-28T08:47:39;12.03;;;9.80;;
14143;SDS011;7152;48.348;10.980;2023-02-28T08:50:04;11.97;;;9.27;;
14143;SDS011;7152;48.348;10.980;2023-02-28T08:52:31;11.50;;;9.57;;
14143;SDS011;7152;48.348;10.980;2023-02-28T08:54:56;10.77;;;9.63;;
14143;SDS011;7152;48.348;10.980;2023-02-28T08:57:22;11.67;;;10.13;;
14143;SDS011;7152;48.348;10.980;2023-02-28T08:59:48;13.67;;;10.57;;
14143;SDS011;7152;48.348;10.980;2023-02-28T09:02:14;12.63;;;9.43;;
14143;SDS011;7152;48.348;10.980;2023-02-28T09:04:40;14.73;;;9.80;;
14143;SDS011;7152;48.348;10.980;2023-02-28T09:07:06;10.90;;;9.70;;
14143;SDS011;7152;48.348;10.980;2023-02-28T09:09:32;11.60;;;9.53;;
14143;SDS011;7152;48.348;10.980;2023-02-28T09:11:57;9.20;;;8.17;;
14143;SDS011;7152;48.348;10.980;2023-02-28T09:14:23;10.87;;;9.57;;
14143;SDS011;7152;48.348;10.980;2023-02-28T09:16:49;11.23;;;9.63;;
14143;SDS011;7152;48.348;10.980;2023-02-28T09:19:15;10.00;;;8.67;;
14143;SDS011;7152;48.348;10.980;2023-02-28T09:21:40;11.07;;;9.70;;
14143;SDS011;7152;48.348;10.980;2023-02-28T09:24:06;10.37;;;9.13;;
14143;SDS011;7152;48.348;10.980;2023-02-28T09:26:32;10.57;;;9.43;;
14143;SDS011;7152;48.348;10.980;2023-02-28T09:28:59;11.03;;;9.67;;
14143;SDS011;7152;48.348;10.980;2023-02-28T09:31:25;11.97;;;8.97;;
14143;SDS011;7152;48.348;10.980;2023-02-28T09:33:53;10.60;;;9.33;;
14143;SDS011;7152;48.348;10.980;2023-02-28T09:36:22;12.40;;;9.37;;
14143;SDS011;7152;48.348;10.980;2023-02-28T09:38:48;11.80;;;9.83;;
14143;SDS011;7152;48.348;10.980;2023-02-28T09:41:20;10.87;;;9.67;;
14143;SDS011;7152;48.348;10.980;2023-02-28T09:43:54;12.40;;;9.77;;
14143;SDS011;7152;48.348;10.980;2023-02-28T09:49:06;11.77;;;9.90;;
14143;SDS011;7152;48.348;10.980;2023-02-28T09:54:24;10.53;;;9.43;;
14143;SDS011;7152;48.348;10.980;2023-02-28T10:04:56;12.03;;;10.03;;
14143;SDS011;7152;48.348;10.980;2023-02-28T10:07:32;11.23;;;9.33;;
14143;SDS011;7152;48.348;10.980;2023-02-28T10:12:56;10.93;;;9.83;;
14143;SDS011;7152;48.348;10.980;2023-02-28T10:15:26;12.47;;;9.50;;
14143;SDS011;7152;48.348;10.980;2023-02-28T10:17:57;11.40;;;9.33;;
14143;SDS011;7152;48.348;10.980;2023-02-28T10:20:25;13.87;;;9.60;;
14143;SDS011;7152;48.348;10.980;2023-02-28T10:25:53;10.93;;;9.07;;
14143;SDS011;7152;48.348;10.980;2023-02-28T10:28:23;10.77;;;9.27;;
14143;SDS011;7152;48.348;10.980;2023-02-28T10:30:51;12.07;;;9.20;;
14143;SDS011;7152;48.348;10.980;2023-02-28T10:33:34;12.40;;;10.00;;
14143;SDS011;7152;48.348;10.980;2023-02-28T10:36:00;11.90;;;9.97;;
14143;SDS011;7152;48.348;10.980;2023-02-28T10:38:31;11.30;;;10.13;;
14143;SDS011;7152;48.348;10.980;2023-02-28T10:43:31;11.10;;;9.93;;
14143;SDS011;7152;48.348;10.980;2023-02-28T10:48:30;11.10;;;9.53;;
14143;SDS011;7152;48.348;10.980;2023-02-28T10:51:00;12.17;;;10.47;;
14143;SDS011;7152;48.348;10.980;2023-02-28T10:53:31;10.63;;;9.00;;
14143;SDS011;7152;48.348;10.980;2023-02-28T11:01:20;12.30;;;9.67;;
14143;SDS011;7152;48.348;10.980;2023-02-28T11:03:46;12.33;;;10.07;;
14143;SDS011;7152;48.348;10.980;2023-02-28T11:06:16;11.57;;;9.47;;
14143;SDS011;7152;48.348;10.980;2023-02-28T11:08:49;11.10;;;10.00;;
14143;SDS011;7152;48.348;10.980;2023-02-28T11:11:21;11.13;;;9.67;;
14143;SDS011;7152;48.348;10.980;2023-02-28T11:13:50;13.80;;;9.87;;
14143;SDS011;7152;48.348;10.980;2023-02-28T11:16:18;11.20;;;10.00;;
14143;SDS011;7152;48.348;10.980;2023-02-28T11:18:53;13.53;;;10.60;;
14143;SDS011;7152;48.348;10.980;2023-02-28T11:21:24;11.73;;;9.57;;
14143;SDS011;7152;48.348;10.980;2023-02-28T11:23:55;12.93;;;10.33;;
14143;SDS011;7152;48.348;10.980;2023-02-28T11:26:35;11.17;;;9.77;;
14143;SDS011;7152;48.348;10.980;2023-02-28T11:29:19;13.27;;;10.03;;
14143;SDS011;7152;48.348;10.980;2023-02-28T11:34:30;12.07;;;9.97;;
14143;SDS011;7152;48.348;10.980;2023-02-28T11:36:57;10.43;;;9.30;;
14143;SDS011;7152;48.348;10.980;2023-02-28T11:39:24;11.90;;;9.37;;
14143;SDS011;7152;48.348;10.980;2023-02-28T11:47:09;11.07;;;9.87;;
14143;SDS011;7152;48.348;10.980;2023-02-28T11:49:41;10.60;;;9.50;;
14143;SDS011;7152;48.348;10.980;2023-02-28T11:55:00;10.90;;;9.80;;
14143;SDS011;7152;48.348;10.980;2023-02-28T11:57:53;10.33;;;9.30;;
14143;SDS011;7152;48.348;10.980;2023-02-28T12:05:45;10.83;;;9.73;;
14143;SDS011;7152;48.348;10.980;2023-02-28T12:08:23;12.10;;;10.77;;
14143;SDS011;7152;48.348;10.980;2023-02-28T12:28:24;11.43;;;9.50;;
14143;SDS011;7152;48.348;10.980;2023-02-28T12:31:18;10.80;;;9.47;;
14143;SDS011;7152;48.348;10.980;2023-02-28T12:33:48;11.03;;;9.83;;
14143;SDS011;7152;48.348;10.980;2023-02-28T12:36:18;10.07;;;8.93;;
14143;SDS011;7152;48.348;10.980;2023-02-28T12:39:00;10.97;;;9.90;;
14143;SDS011;7152;48.348;10.980;2023-02-28T12:46:51;9.60;;;8.70;;
14143;SDS011;7152;48.348;10.980;2023-02-28T12:49:30;11.20;;;8.77;;
14143;SDS011;7152;48.348;10.980;2023-02-28T12:52:07;10.10;;;8.90;;
14143;SDS011;7152;48.348;10.980;2023-02-28T12:59:57;9.33;;;8.10;;
14143;SDS011;7152;48.348;10.980;2023-02-28T13:10:41;9.30;;;8.40;;
14143;SDS011;7152;48.348;10.980;2023-02-28T13:13:15;8.90;;;8.10;;
14143;SDS011;7152;48.348;10.980;2023-02-28T13:18:35;9.50;;;8.57;;
14143;SDS011;7152;48.348;10.980;2023-02-28T13:21:04;9.00;;;8.20;;
14143;SDS011;7152;48.348;10.980;2023-02-28T13:23:37;10.00;;;9.00;;
14143;SDS011;7152;48.348;10.980;2023-02-28T13:26:05;9.27;;;8.37;;
14143;SDS011;7152;48.348;10.980;2023-02-28T13:31:16;9.27;;;8.47;;
14143;SDS011;7152;48.348;10.980;2023-02-28T13:38:40;9.17;;;8.27;;
14143;SDS011;7152;48.348;10.980;2023-02-28T13:44:16;9.40;;;8.43;;
14143;SDS011;7152;48.348;10.980;2023-02-28T13:57:17;9.37;;;8.57;;
14143;SDS011;7152;48.348;10.980;2023-02-28T14:02:42;10.00;;;9.10;;
14143;SDS011;7152;48.348;10.980;2023-02-28T14:05:27;9.43;;;8.63;;
14143;SDS011;7152;48.348;10.980;2023-02-28T14:07:57;9.50;;;8.60;;
14143;SDS011;7152;48.348;10.980;2023-02-28T14:10:29;9.77;;;8.87;;
14143;SDS011;7152;48.348;10.980;2023-02-28T14:17:58;9.67;;;8.80;;
14143;SDS011;7152;48.348;10.980;2023-02-28T14:20:27;9.90;;;8.90;;
14143;SDS011;7152;48.348;10.980;2023-02-28T14:25:44;9.17;;;8.27;;
14143;SDS011;7152;48.348;10.980;2023-02-28T14:31:15;9.33;;;8.40;;
14143;SDS011;7152;48.348;10.980;2023-02-28T14:36:26;8.83;;;8.03;;
14143;SDS011;7152;48.348;10.980;2023-02-28T14:39:01;9.47;;;8.57;;
14143;SDS011;7152;48.348;10.980;2023-02-28T14:41:38;8.63;;;7.80;;
14143;SDS011;7152;48.348;10.980;2023-02-28T14:44:23;9.87;;;8.90;;
14143;SDS011;7152;48.348;10.980;2023-02-28T14:46:52;8.97;;;8.13;;
14143;SDS011;7152;48.348;10.980;2023-02-28T14:51:47;9.57;;;8.53;;
14143;SDS011;7152;48.348;10.980;2023-02-28T14:54:16;9.33;;;8.43;;
14143;SDS011;7152;48.348;10.980;2023-02-28T14:56:48;9.00;;;8.20;;
14143;SDS011;7152;48.348;10.980;2023-02-28T14:59:23;9.97;;;8.97;;
14143;SDS011;7152;48.348;10.980;2023-02-28T15:01:49;9.30;;;8.43;;
14143;SDS011;7152;48.348;10.980;2023-02-28T15:04:18;10.30;;;9.30;;
14143;SDS011;7152;48.348;10.980;2023-02-28T15:09:35;10.80;;;9.13;;
14143;SDS011;7152;48.348;10.980;2023-02-28T15:12:01;10.03;;;8.97;;
14143;SDS011;7152;48.348;10.980;2023-02-28T15:14:26;9.80;;;8.90;;
14143;SDS011;7152;48.348;10.980;2023-02-28T15:16:58;9.50;;;8.57;;
14143;SDS011;7152;48.348;10.980;2023-02-28T15:19:27;10.70;;;9.60;;
14143;SDS011;7152;48.348;10.980;2023-02-28T15:22:01;9.90;;;8.97;;
14143;SDS011;7152;48.348;10.980;2023-02-28T15:24:33;10.60;;;9.50;;
14143;SDS011;7152;48.348;10.980;2023-02-28T15:27:11;10.40;;;9.40;;
14143;SDS011;7152;48.348;10.980;2023-02-28T15:29:59;10.27;;;9.13;;
14143;SDS011;7152;48.348;10.980;2023-02-28T15:34:57;10.70;;;9.60;;
14143;SDS011;7152;48.348;10.980;2023-02-28T15:45:38;11.07;;;9.83;;
14143;SDS011;7152;48.348;10.980;2023-02-28T15:48:16;10.80;;;9.47;;
14143;SDS011;7152;48.348;10.980;2023-02-28T15:51:06;11.50;;;9.73;;
14143;SDS011;7152;48.348;10.980;2023-02-28T15:53:39;12.07;;;10.80;;
14143;SDS011;7152;48.348;10.980;2023-02-28T15:56:17;12.53;;;10.90;;
14143;SDS011;7152;48.348;10.980;2023-02-28T15:58:59;13.00;;;11.40;;
14143;SDS011;7152;48.348;10.980;2023-02-28T16:01:32;11.93;;;9.87;;
14143;SDS011;7152;48.348;10.980;2023-02-28T16:04:01;12.27;;;10.30;;
14143;SDS011;7152;48.348;10.980;2023-02-28T16:06:31;13.10;;;9.87;;
14143;SDS011;7152;48.348;10.980;2023-02-28T16:09:05;11.53;;;10.37;;
14143;SDS011;7152;48.348;10.980;2023-02-28T16:11:34;12.80;;;10.10;;
14143;SDS011;7152;48.348;10.980;2023-02-28T16:14:03;10.83;;;9.33;;
14143;SDS011;7152;48.348;10.980;2023-02-28T16:16:29;14.70;;;10.47;;
14143;SDS011;7152;48.348;10.980;2023-02-28T16:18:57;13.30;;;10.43;;
14143;SDS011;7152;48.348;10.980;2023-02-28T16:21:22;10.87;;;9.77;;
14143;SDS011;7152;48.348;10.980;2023-02-28T16:23:50;13.50;;;10.70;;
14143;SDS011;7152;48.348;10.980;2023-02-28T16:26:19;14.03;;;11.23;;
14143;SDS011;7152;48.348;10.980;2023-02-28T16:28:47;13.07;;;11.67;;
14143;SDS011;7152;48.348;10.980;2023-02-28T16:31:14;13.33;;;11.00;;
14143;SDS011;7152;48.348;10.980;2023-02-28T16:33:41;14.90;;;12.20;;
14143;SDS011;7152;48.348;10.980;2023-02-28T16:36:19;14.13;;;11.97;;
14143;SDS011;7152;48.348;10.980;2023-02-28T16:38:48;13.40;;;11.13;;
14143;SDS011;7152;48.348;10.980;2023-02-28T16:41:16;12.97;;;11.53;;
14143;SDS011;7152;48.348;10.980;2023-02-28T16:43:47;18.40;;;11.97;;
14143;SDS011;7152;48.348;10.980;2023-02-28T16:46:15;17.20;;;14.37;;
14143;SDS011;7152;48.348;10.980;2023-02-28T16:48:41;15.67;;;12.07;;
14143;SDS011;7152;48.348;10.980;2023-02-28T16:51:11;14.40;;;12.23;;
14143;SDS011;7152;48.348;10.980;2023-02-28T16:53:37;15.23;;;11.50;;
14143;SDS011;7152;48.348;10.980;2023-02-28T16:56:03;14.20;;;12.17;;
14143;SDS011;7152;48.348;10.980;2023-02-28T16:58:31;13.40;;;11.17;;
14143;SDS011;7152;48.348;10.980;2023-02-28T17:01:00;17.73;;;13.07;;
14143;SDS011;7152;48.348;10.980;2023-02-28T17:03:27;19.23;;;14.70;;
14143;SDS011;7152;48.348;10.980;2023-02-28T17:05:53;18.20;;;13.80;;
14143;SDS011;7152;48.348;10.980;2023-02-28T17:08:19;17.43;;;13.40;;
14143;SDS011;7152;48.348;10.980;2023-02-28T17:10:45;18.20;;;12.70;;
14143;SDS011;7152;48.348;10.980;2023-02-28T17:13:11;16.03;;;12.93;;
14143;SDS011;7152;48.348;10.980;2023-02-28T17:15:36;16.47;;;12.53;;
14143;SDS011;7152;48.348;10.980;2023-02-28T17:18:03;15.93;;;11.87;;
14143;SDS011;7152;48.348;10.980;2023-02-28T17:20:29;13.10;;;11.70;;
14143;SDS011;7152;48.348;10.980;2023-02-28T17:22:55;14.70;;;12.27;;
14143;SDS011;7152;48.348;10.980;2023-02-28T17:25:21;15.57;;;12.50;;
14143;SDS011;7152;48.348;10.980;2023-02-28T17:27:49;14.33;;;12.30;;
14143;SDS011;7152;48.348;10.980;2023-02-28T17:30:17;13.93;;;12.37;;
14143;SDS011;7152;48.348;10.980;2023-02-28T17:32:45;15.90;;;12.97;;
14143;SDS011;7152;48.348;10.980;2023-02-28T17:35:11;16.03;;;12.27;;
14143;SDS011;7152;48.348;10.980;2023-02-28T17:37:38;16.20;;;12.77;;
14143;SDS011;7152;48.348;10.980;2023-02-28T17:40:04;17.17;;;13.67;;
14143;SDS011;7152;48.348;10.980;2023-02-28T17:42:30;13.93;;;11.60;;
14143;SDS011;7152;48.348;10.980;2023-02-28T17:44:56;17.53;;;13.60;;
14143;SDS011;7152;48.348;10.980;2023-02-28T17:47:21;16.37;;;12.97;;